Wetterdaten: Woche 25.03.13 - 31.03.13 (KW13)
Datum Zeit Temp. A. Feuchte A. Luftdruck Regen Wind Richtung Taupunkt Windchill Windben
25.03.2013 00:00 -3,9 C 85 % 1018,7 hPa 0,0 l/m 3,5 km/h N -6,0 C -3,9 C 13,3 km/h
25.03.2013 01:00 -3,9 C 85 % 1018,1 hPa 0,0 l/m 3,3 km/h N -6,0 C -3,9 C 11,7 km/h
25.03.2013 02:00 -3,8 C 85 % 1017,4 hPa 0,0 l/m 2,8 km/h N -6,0 C -3,8 C 12,1 km/h
25.03.2013 03:00 -4,0 C 84 % 1016,8 hPa 0,0 l/m 6,1 km/h N -6,3 C -4,3 C 14,5 km/h
25.03.2013 04:00 -4,1 C 84 % 1016,5 hPa 0,0 l/m 7,2 km/h N -6,5 C -5,2 C 18,9 km/h
25.03.2013 05:00 -4,1 C 83 % 1016,4 hPa 0,0 l/m 6,7 km/h N -6,5 C -5,4 C 17,7 km/h
25.03.2013 06:00 -4,0 C 83 % 1016,4 hPa 0,0 l/m 4,1 km/h N -6,5 C -4,0 C 11,7 km/h
25.03.2013 07:00 -3,7 C 83 % 1016,3 hPa 0,0 l/m 1,7 km/h N -6,1 C -3,7 C 7,6 km/h
25.03.2013 08:00 -3,2 C 84 % 1016,1 hPa 0,0 l/m 2,0 km/h N -5,6 C -3,2 C 10,1 km/h
25.03.2013 09:00 -3,0 C 85 % 1015,7 hPa 0,0 l/m 2,6 km/h N -5,2 C -3,0 C 10,5 km/h
25.03.2013 10:00 -2,4 C 83 % 1015,2 hPa 0,0 l/m 2,4 km/h N -4,9 C -2,4 C 10,5 km/h
25.03.2013 11:00 -1,3 C 80 % 1014,4 hPa 0,0 l/m 1,5 km/h N -4,4 C -1,3 C 9,2 km/h
25.03.2013 12:00 -0,9 C 78 % 1013,8 hPa 0,0 l/m 1,4 km/h N -4,3 C -0,9 C 8,1 km/h
25.03.2013 13:00 -1,0 C 78 % 1013,2 hPa 0,8 l/m 0,4 km/h N -4,3 C -1,0 C 4,8 km/h
25.03.2013 14:00 -1,4 C 80 % 1012,8 hPa 0,5 l/m 0,4 km/h N -4,4 C -1,4 C 5,2 km/h
25.03.2013 15:00 -1,7 C 82 % 1012,3 hPa 0,3 l/m 1,9 km/h N -4,4 C -1,7 C 8,9 km/h
25.03.2013 16:00 -2,2 C 82 % 1011,9 hPa 0,3 l/m 3,8 km/h N -4,8 C -2,2 C 12,1 km/h
25.03.2013 17:00 -2,1 C 83 % 1011,5 hPa 0,0 l/m 3,5 km/h N -4,6 C -2,1 C 11,7 km/h
25.03.2013 18:00 -2,4 C 84 % 1011,4 hPa 0,0 l/m 3,9 km/h N -4,7 C -2,4 C 10,1 km/h
25.03.2013 19:00 -3,2 C 84 % 1011,3 hPa 0,0 l/m 4,9 km/h N -5,5 C -3,2 C 14,5 km/h
25.03.2013 20:00 -3,5 C 87 % 1011,4 hPa 0,0 l/m 4,1 km/h N -5,4 C -3,5 C 10,5 km/h
25.03.2013 21:00 -3,7 C 85 % 1011,3 hPa 0,0 l/m 3,9 km/h N -5,8 C -3,7 C 9,7 km/h
25.03.2013 22:00 -3,8 C 84 % 1010,6 hPa 0,0 l/m 4,7 km/h N -6,1 C -3,8 C 12,9 km/h
25.03.2013 23:00 -4,0 C 85 % 1010,2 hPa 0,0 l/m 4,1 km/h N -6,2 C -4,0 C 11,3 km/h
26.03.2013 00:00 -4,1 C 85 % 1009,8 hPa 0,0 l/m 3,1 km/h N -6,3 C -4,1 C 8,9 km/h
26.03.2013 01:00 -4,3 C 85 % 1009,3 hPa 0,0 l/m 4,6 km/h N -6,5 C -4,3 C 10,9 km/h
26.03.2013 02:00 -4,4 C 86 % 1008,9 hPa 0,0 l/m 5,3 km/h N -6,4 C -4,4 C 12,1 km/h
26.03.2013 03:00 -4,4 C 85 % 1008,7 hPa 0,0 l/m 5,6 km/h N -6,5 C -4,4 C 12,5 km/h
26.03.2013 04:00 -4,6 C 85 % 1008,4 hPa 0,0 l/m 7,5 km/h N -6,7 C -5,8 C 16,9 km/h
26.03.2013 05:00 -4,8 C 85 % 1008,3 hPa 0,0 l/m 6,8 km/h N -6,9 C -5,5 C 16,1 km/h
26.03.2013 06:00 -5,0 C 85 % 1008,3 hPa 0,0 l/m 8,6 km/h N -7,1 C -7,5 C 19,3 km/h
26.03.2013 07:00 -5,0 C 85 % 1008,5 hPa 0,0 l/m 7,2 km/h N -7,2 C -6,0 C 16,9 km/h
26.03.2013 08:00 -4,8 C 85 % 1008,3 hPa 0,0 l/m 9,7 km/h N -6,9 C -8,4 C 22,9 km/h
26.03.2013 09:00 -4,5 C 84 % 1008,4 hPa 0,0 l/m 9,5 km/h N -6,8 C -7,8 C 20,9 km/h
26.03.2013 10:00 -4,1 C 85 % 1008,4 hPa 0,0 l/m 9,2 km/h N -6,2 C -7,1 C 20,5 km/h
26.03.2013 11:00 -3,5 C 84 % 1008,3 hPa 0,0 l/m 9,7 km/h N -5,8 C -7,1 C 21,3 km/h
26.03.2013 12:00 -3,2 C 82 % 1008,3 hPa 0,0 l/m 10,4 km/h N -5,8 C -7,2 C 21,3 km/h
26.03.2013 13:00 -2,8 C 81 % 1008,3 hPa 0,0 l/m 10,4 km/h N -5,7 C -6,9 C 22,9 km/h
26.03.2013 14:00 -2,6 C 82 % 1008,2 hPa 0,0 l/m 9,8 km/h N -5,2 C -6,1 C 20,9 km/h
26.03.2013 15:00 -2,4 C 82 % 1008,3 hPa 0,0 l/m 9,6 km/h N -5,0 C -5,7 C 21,3 km/h
26.03.2013 16:00 -2,4 C 83 % 1008,5 hPa 0,0 l/m 9,4 km/h N -4,8 C -5,5 C 19,3 km/h
26.03.2013 17:00 -2,6 C 85 % 1008,9 hPa 0,0 l/m 8,1 km/h N -4,8 C -4,5 C 21,3 km/h
26.03.2013 18:00 -2,7 C 84 % 1009,2 hPa 0,0 l/m 7,7 km/h N -5,0 C -4,1 C 18,1 km/h
26.03.2013 19:00 -2,9 C 85 % 1009,6 hPa 0,0 l/m 6,8 km/h N -5,1 C -3,5 C 16,1 km/h
26.03.2013 20:00 -3,3 C 85 % 1010,1 hPa 0,0 l/m 5,7 km/h N -5,4 C -3,5 C 15,7 km/h
26.03.2013 21:00 -3,4 C 85 % 1010,3 hPa 0,0 l/m 5,7 km/h N -5,5 C -3,4 C 15,3 km/h
26.03.2013 22:00 -3,6 C 85 % 1010,5 hPa 0,0 l/m 5,6 km/h N -5,8 C -3,8 C 14,5 km/h
26.03.2013 23:00 -3,8 C 85 % 1010,5 hPa 0,0 l/m 5,8 km/h N -5,9 C -3,8 C 13,7 km/h
27.03.2013 00:00 -3,8 C 85 % 1010,5 hPa 0,0 l/m 6,4 km/h N -6,0 C -4,0 C 15,7 km/h
27.03.2013 01:00 -4,0 C 85 % 1010,5 hPa 0,0 l/m 4,1 km/h N -6,1 C -4,0 C 9,3 km/h
27.03.2013 02:00 -4,1 C 85 % 1010,3 hPa 0,0 l/m 3,6 km/h N -6,2 C -4,1 C 10,5 km/h
27.03.2013 03:00 -4,1 C 85 % 1010,1 hPa 0,0 l/m 4,7 km/h N -6,2 C -4,1 C 10,5 km/h
27.03.2013 04:00 -4,2 C 85 % 1010,2 hPa 0,0 l/m 4,6 km/h N -6,4 C -4,2 C 10,9 km/h
27.03.2013 05:00 -4,4 C 85 % 1010,4 hPa 0,0 l/m 3,9 km/h N -6,5 C -4,4 C 9,7 km/h
27.03.2013 06:00 -4,5 C 86 % 1010,7 hPa 0,0 l/m 4,4 km/h N -6,6 C -4,5 C 9,3 km/h
27.03.2013 07:00 -4,1 C 86 % 1010,9 hPa 0,0 l/m 5,3 km/h N -6,1 C -4,1 C 12,1 km/h
27.03.2013 08:00 -3,4 C 83 % 1011,0 hPa 0,0 l/m 6,0 km/h N -6,0 C -3,7 C 14,5 km/h
27.03.2013 09:00 -2,3 C 77 % 1011,2 hPa 0,0 l/m 7,0 km/h N -5,7 C -3,3 C 16,1 km/h
27.03.2013 10:00 -0,9 C 68 % 1011,3 hPa 0,5 l/m 7,5 km/h N -6,0 C -2,0 C 18,5 km/h
27.03.2013 11:00 -0,2 C 65 % 1011,5 hPa 1,3 l/m 5,3 km/h N -5,9 C -0,2 C 14,1 km/h
27.03.2013 12:00 0,5 C 62 % 1011,4 hPa 1,3 l/m 4,1 km/h N -5,8 C 0,5 C 11,3 km/h
27.03.2013 13:00 0,8 C 62 % 1011,2 hPa 1,3 l/m 3,8 km/h N -5,7 C 0,8 C 12,9 km/h
27.03.2013 14:00 1,6 C 62 % 1011,2 hPa 1,0 l/m 1,2 km/h N -4,8 C 1,6 C 6,8 km/h
27.03.2013 15:00 1,7 C 64 % 1011,4 hPa 0,3 l/m 0,9 km/h N -4,4 C 1,7 C 6,4 km/h
27.03.2013 16:00 1,8 C 63 % 1011,6 hPa 0,5 l/m 0,8 km/h N -4,5 C 1,8 C 6,0 km/h
27.03.2013 17:00 1,4 C 66 % 1012,0 hPa 0,0 l/m 0,2 km/h N -4,4 C 1,4 C 3,2 km/h
27.03.2013 18:00 -0,2 C 71 % 1012,6 hPa 0,0 l/m 0,0 km/h N -4,9 C -0,2 C 1,2 km/h
27.03.2013 19:00 -0,9 C 75 % 1013,0 hPa 0,0 l/m 0,2 km/h N -4,7 C -0,9 C 2,4 km/h
27.03.2013 20:00 -1,0 C 77 % 1013,2 hPa 0,0 l/m 0,2 km/h N -4,5 C -1,0 C 2,8 km/h
27.03.2013 21:00 -1,3 C 78 % 1013,2 hPa 0,0 l/m 0,1 km/h N -4,6 C -1,3 C 1,2 km/h
27.03.2013 22:00 -1,3 C 79 % 1013,0 hPa 0,0 l/m 0,4 km/h N -4,4 C -1,3 C 2,8 km/h
27.03.2013 23:00 -1,7 C 80 % 1012,8 hPa 0,0 l/m 0,0 km/h N -4,7 C -1,7 C 0,4 km/h
28.03.2013 00:00 -2,5 C 81 % 1012,7 hPa 0,0 l/m 0,0 km/h N -5,3 C -2,5 C 0,0 km/h
28.03.2013 01:00 -3,4 C 82 % 1012,5 hPa 0,0 l/m 0,0 km/h N -6,0 C -3,4 C 0,0 km/h
28.03.2013 02:00 -4,4 C 83 % 1012,3 hPa 0,0 l/m 0,0 km/h N -6,8 C -4,4 C 1,2 km/h
28.03.2013 03:00 -5,3 C 84 % 1012,3 hPa 0,0 l/m 0,0 km/h N -7,5 C -5,3 C 0,0 km/h
28.03.2013 04:00 -6,0 C 85 % 1012,5 hPa 0,0 l/m 0,0 km/h N -8,1 C -6,0 C 0,0 km/h
28.03.2013 05:00 -6,8 C 85 % 1012,7 hPa 0,0 l/m 0,0 km/h N -8,9 C -6,8 C 0,0 km/h
28.03.2013 06:00 -7,0 C 85 % 1013,1 hPa 0,0 l/m 0,0 km/h N -9,1 C -7,0 C 0,0 km/h
28.03.2013 07:00 -4,5 C 83 % 1013,2 hPa 0,0 l/m 0,1 km/h N -6,9 C -4,5 C 1,2 km/h
28.03.2013 08:00 -0,8 C 82 % 1012,8 hPa 0,3 l/m 3,3 km/h N -3,5 C -1,0 C 11,3 km/h
28.03.2013 09:00 1,3 C 71 % 1012,7 hPa 0,3 l/m 9,7 km/h N -3,4 C -1,7 C 22,5 km/h
28.03.2013 10:00 2,4 C 67 % 1012,6 hPa 0,5 l/m 8,6 km/h N -3,1 C 0,3 C 22,1 km/h
28.03.2013 11:00 3,1 C 65 % 1012,4 hPa 0,5 l/m 10,6 km/h N -2,8 C -0,4 C 25,8 km/h
28.03.2013 12:00 4,0 C 64 % 1012,4 hPa 0,0 l/m 9,6 km/h N -2,2 C 1,2 C 26,1 km/h
28.03.2013 13:00 4,6 C 65 % 1012,3 hPa 0,3 l/m 9,9 km/h N -1,6 C 1,7 C 26,5 km/h
28.03.2013 14:00 5,0 C 64 % 1011,9 hPa 0,0 l/m 7,3 km/h N -1,2 C 4,2 C 24,1 km/h
28.03.2013 15:00 4,9 C 66 % 1011,8 hPa 0,0 l/m 6,3 km/h N -0,9 C 4,8 C 20,4 km/h
28.03.2013 16:00 4,3 C 69 % 1011,8 hPa 0,0 l/m 5,8 km/h N -1,0 C 4,0 C 18,1 km/h
28.03.2013 17:00 3,6 C 71 % 1011,7 hPa 0,0 l/m 5,4 km/h N -1,2 C 3,5 C 18,9 km/h
28.03.2013 18:00 3,0 C 73 % 1011,6 hPa 0,0 l/m 5,7 km/h N -1,4 C 2,7 C 20,5 km/h
28.03.2013 19:00 1,7 C 77 % 1011,9 hPa 0,0 l/m 3,7 km/h N -1,9 C 1,7 C 15,7 km/h
28.03.2013 20:00 1,3 C 78 % 1011,7 hPa 0,0 l/m 5,0 km/h N -2,2 C 1,3 C 18,5 km/h
28.03.2013 21:00 1,0 C 79 % 1011,3 hPa 0,0 l/m 4,8 km/h N -2,2 C 1,0 C 16,9 km/h
28.03.2013 22:00 1,0 C 80 % 1010,4 hPa 0,0 l/m 7,7 km/h N -2,0 C -1,1 C 23,4 km/h
28.03.2013 23:00 1,1 C 83 % 1009,5 hPa 0,0 l/m 10,0 km/h N -1,5 C -2,1 C 24,5 km/h
29.03.2013 00:00 1,1 C 85 % 1008,5 hPa 0,0 l/m 6,3 km/h N -1,2 C 0,5 C 20,5 km/h
29.03.2013 01:00 1,3 C 85 % 1007,8 hPa 0,0 l/m 2,9 km/h N -1,1 C 1,3 C 10,5 km/h
29.03.2013 02:00 1,5 C 84 % 1006,9 hPa 0,0 l/m 0,8 km/h N -0,9 C 1,5 C 4,8 km/h
29.03.2013 03:00 2,7 C 83 % 1005,9 hPa 0,0 l/m 6,5 km/h N 0,1 C 2,0 C 18,1 km/h
29.03.2013 04:00 3,0 C 84 % 1005,8 hPa 0,0 l/m 3,3 km/h N 0,6 C 3,0 C 12,5 km/h
29.03.2013 05:00 2,8 C 84 % 1005,8 hPa 0,0 l/m 5,0 km/h N 0,4 C 2,6 C 15,7 km/h
29.03.2013 06:00 2,5 C 84 % 1006,0 hPa 0,0 l/m 1,4 km/h N 0,1 C 2,5 C 5,2 km/h
29.03.2013 07:00 2,2 C 84 % 1006,7 hPa 0,3 l/m 0,1 km/h N -0,2 C 2,2 C 1,6 km/h
29.03.2013 08:00 2,3 C 83 % 1007,3 hPa 0,3 l/m 0,3 km/h N -0,3 C 2,3 C 1,2 km/h
29.03.2013 09:00 2,9 C 82 % 1007,5 hPa 0,0 l/m 1,1 km/h N 0,2 C 2,9 C 7,6 km/h
29.03.2013 10:00 4,3 C 84 % 1007,8 hPa 0,0 l/m 6,8 km/h N 1,8 C 3,5 C 16,9 km/h
29.03.2013 11:00 4,9 C 79 % 1008,0 hPa 0,3 l/m 10,3 km/h N 1,5 C 1,7 C 23,7 km/h
29.03.2013 12:00 5,1 C 75 % 1007,7 hPa 0,0 l/m 9,0 km/h N 0,9 C 2,9 C 24,5 km/h
29.03.2013 13:00 5,2 C 74 % 1007,5 hPa 0,0 l/m 6,9 km/h N 1,0 C 4,3 C 15,7 km/h
29.03.2013 14:00 6,6 C 70 % 1006,7 hPa 0,0 l/m 8,2 km/h N 1,6 C 5,1 C 19,3 km/h
29.03.2013 15:00 7,8 C 65 % 1006,0 hPa 0,0 l/m 6,7 km/h N 1,6 C 7,4 C 16,1 km/h
29.03.2013 16:00 7,2 C 65 % 1005,9 hPa 0,0 l/m 5,7 km/h N 1,1 C 6,9 C 14,9 km/h
29.03.2013 17:00 5,5 C 79 % 1006,0 hPa 0,0 l/m 5,6 km/h N 2,1 C 5,5 C 17,7 km/h
29.03.2013 18:00 4,5 C 82 % 1006,1 hPa 0,0 l/m 4,4 km/h N 1,7 C 4,5 C 11,3 km/h
29.03.2013 19:00 4,2 C 84 % 1006,8 hPa 0,0 l/m 2,7 km/h N 1,7 C 4,2 C 10,5 km/h
29.03.2013 20:00 4,2 C 84 % 1006,9 hPa 0,0 l/m 2,0 km/h N 1,7 C 4,2 C 7,6 km/h
29.03.2013 21:00 3,9 C 85 % 1007,1 hPa 0,0 l/m 1,3 km/h N 1,6 C 3,9 C 7,2 km/h
29.03.2013 22:00 3,7 C 84 % 1006,9 hPa 0,0 l/m 1,0 km/h N 1,3 C 3,7 C 4,4 km/h
29.03.2013 23:00 3,6 C 84 % 1006,8 hPa 0,0 l/m 0,1 km/h N 1,2 C 3,6 C 2,0 km/h
30.03.2013 00:00 3,5 C 84 % 1006,5 hPa 0,0 l/m 0,0 km/h N 1,0 C 3,5 C 0,0 km/h
30.03.2013 01:00 3,2 C 84 % 1006,0 hPa 0,0 l/m 0,0 km/h N 0,8 C 3,2 C 0,0 km/h
30.03.2013 02:00 3,0 C 84 % 1005,9 hPa 0,0 l/m 0,0 km/h N 0,6 C 3,0 C 0,0 km/h
30.03.2013 03:00 2,8 C 84 % 1005,6 hPa 0,0 l/m 0,1 km/h N 0,4 C 2,8 C 1,2 km/h
30.03.2013 04:00 2,9 C 84 % 1005,8 hPa 0,0 l/m 0,8 km/h N 0,4 C 2,9 C 4,4 km/h
30.03.2013 05:00 2,8 C 84 % 1005,9 hPa 0,0 l/m 0,4 km/h N 0,4 C 2,8 C 4,4 km/h
30.03.2013 06:00 2,6 C 84 % 1006,1 hPa 0,0 l/m 0,1 km/h N 0,2 C 2,6 C 2,0 km/h
30.03.2013 07:00 2,6 C 84 % 1006,1 hPa 0,0 l/m 0,3 km/h N 0,3 C 2,6 C 3,2 km/h
30.03.2013 08:00 2,8 C 84 % 1006,3 hPa 0,0 l/m 0,2 km/h N 0,4 C 2,8 C 2,8 km/h
30.03.2013 09:00 3,1 C 84 % 1006,2 hPa 0,0 l/m 0,1 km/h N 0,6 C 3,1 C 2,0 km/h
30.03.2013 10:00 3,3 C 83 % 1006,3 hPa 0,0 l/m 0,3 km/h N 0,7 C 3,3 C 4,8 km/h
30.03.2013 11:00 3,4 C 83 % 1005,7 hPa 0,0 l/m 0,2 km/h N 0,8 C 3,4 C 3,2 km/h
30.03.2013 12:00 3,3 C 83 % 1005,3 hPa 0,0 l/m 0,4 km/h N 0,7 C 3,3 C 4,0 km/h
30.03.2013 13:00 3,6 C 83 % 1005,0 hPa 0,0 l/m 0,4 km/h N 0,9 C 3,6 C 4,8 km/h
30.03.2013 14:00 3,8 C 83 % 1004,5 hPa 0,0 l/m 0,6 km/h N 1,2 C 3,8 C 5,2 km/h
30.03.2013 15:00 4,1 C 84 % 1004,0 hPa 0,0 l/m 0,5 km/h N 1,6 C 4,1 C 5,2 km/h
30.03.2013 16:00 4,2 C 85 % 1003,5 hPa 0,0 l/m 0,5 km/h N 1,9 C 4,2 C 5,2 km/h
30.03.2013 17:00 4,3 C 85 % 1003,1 hPa 0,0 l/m 0,0 km/h N 2,0 C 4,3 C 1,2 km/h
30.03.2013 18:00 4,2 C 85 % 1003,3 hPa 0,0 l/m 0,1 km/h N 1,9 C 4,2 C 2,0 km/h
30.03.2013 19:00 4,0 C 85 % 1003,6 hPa 0,8 l/m 0,0 km/h N 1,7 C 4,0 C 0,0 km/h
30.03.2013 20:00 3,8 C 85 % 1003,6 hPa 1,8 l/m 0,0 km/h N 1,5 C 3,8 C 0,0 km/h
30.03.2013 21:00 3,6 C 84 % 1003,3 hPa 2,9 l/m 0,1 km/h N 1,2 C 3,6 C 2,8 km/h
30.03.2013 22:00 3,0 C 84 % 1002,8 hPa 1,8 l/m 2,3 km/h N 0,6 C 3,0 C 7,6 km/h
30.03.2013 23:00 2,2 C 84 % 1002,3 hPa 2,1 l/m 5,2 km/h N -0,3 C 2,2 C 12,9 km/h
31.03.2013 00:00 1,4 C 83 % 1002,0 hPa 1,3 l/m 3,3 km/h N -1,1 C 1,4 C 8,9 km/h
31.03.2013 01:00 1,0 C 82 % 1001,9 hPa 1,8 l/m 3,3 km/h N -1,7 C 1,0 C 7,2 km/h
31.03.2013 03:00 0,8 C 82 % 1001,5 hPa 1,6 l/m 2,7 km/h N -1,9 C 0,8 C 8,1 km/h
31.03.2013 04:00 1,0 C 81 % 1000,9 hPa 1,0 l/m 6,4 km/h N -1,9 C 0,7 C 15,3 km/h
31.03.2013 05:00 0,8 C 81 % 1000,7 hPa 0,5 l/m 8,2 km/h N -2,1 C -1,0 C 20,1 km/h
31.03.2013 06:00 0,8 C 81 % 1000,8 hPa 1,0 l/m 10,5 km/h N -2,0 C -2,8 C 21,7 km/h
31.03.2013 07:00 1,0 C 82 % 1001,1 hPa 1,0 l/m 9,9 km/h N -1,8 C -2,3 C 20,9 km/h
31.03.2013 08:00 1,0 C 82 % 1001,1 hPa 1,3 l/m 9,8 km/h N -1,7 C -2,1 C 21,7 km/h
31.03.2013 09:00 1,3 C 83 % 1001,3 hPa 1,3 l/m 12,6 km/h N -1,3 C -3,9 C 28,2 km/h
31.03.2013 10:00 1,3 C 85 % 1001,4 hPa 0,8 l/m 13,3 km/h N -1,0 C -4,3 C 32,6 km/h
31.03.2013 11:00 1,4 C 85 % 1001,7 hPa 0,3 l/m 12,3 km/h N -0,8 C -3,6 C 28,2 km/h
31.03.2013 12:00 1,6 C 84 % 1001,7 hPa 0,3 l/m 13,1 km/h N -0,8 C -3,9 C 29,8 km/h
31.03.2013 13:00 1,8 C 83 % 1002,3 hPa 0,0 l/m 14,1 km/h N -0,8 C -4,3 C 31,0 km/h
31.03.2013 14:00 1,6 C 84 % 1002,9 hPa 0,3 l/m 13,8 km/h N -0,8 C -4,2 C 28,6 km/h
31.03.2013 15:00 1,3 C 85 % 1003,2 hPa 0,8 l/m 11,4 km/h N -0,9 C -3,0 C 25,3 km/h
31.03.2013 16:00 1,5 C 84 % 1003,8 hPa 0,5 l/m 9,8 km/h N -0,9 C -1,6 C 22,5 km/h
31.03.2013 17:00 1,3 C 85 % 1004,5 hPa 0,3 l/m 12,5 km/h N -1,0 C -3,8 C 29,4 km/h
31.03.2013 18:00 0,8 C 85 % 1005,1 hPa 0,3 l/m 10,8 km/h N -1,5 C -3,1 C 29,4 km/h
31.03.2013 19:00 0,8 C 84 % 1005,7 hPa 0,0 l/m 8,4 km/h N -1,6 C -1,2 C 20,9 km/h
31.03.2013 20:00 1,0 C 85 % 1006,1 hPa 0,3 l/m 11,4 km/h N -1,1 C -3,4 C 28,2 km/h
31.03.2013 21:00 0,9 C 85 % 1006,9 hPa 0,0 l/m 5,7 km/h N -1,4 C -0,0 C 15,7 km/h
31.03.2013 22:00 0,5 C 85 % 1007,4 hPa 0,0 l/m 4,4 km/h N -1,7 C 0,5 C 13,7 km/h
31.03.2013 23:00 0,7 C 85 % 1007,6 hPa 0,0 l/m 4,5 km/h N -1,6 C 0,7 C 13,3 km/h
Min-Datum _ 28.03.13 27.03.13 31.03.13 - 27.03.13 - 28.03.13 26.03.13 27.03.13
_ Min-Zeit 06:15 12:30 04:45 - 17:30 - 06:15 08:45 18:00
Minimum _ -7,2 C 61 % 1000,6 hPa - 0,0 km/h - -9,3 C -9,7 C 0,0 km/h
Max-Datum _ 29.03.13 25.03.13 25.03.13 30.03.13 31.03.13 - 29.03.13 29.03.13 31.03.13
_ Max-Zeit 15:30 20:15 00:00 21:30 14:00 - 16:45 15:45 18:00
Maximum _ 7,9 C 92 % 1018,9 hPa 2,9 l/m 16,0 km/h
N
- 2,3 C 7,8 C 40,2 km/h
N
Durchschnitt _ 0,0 C 81 % 1008,8 hPa #34,6 l/m 4,6 km/h N -2,9 C -0,9 C 12,6 km/h